Time;durP1;ratioP1;P1;durP2;ratioP2;P2;SDS_P1;SDS_P2;PMS_P1;PMS_P2;Temp;Humidity;BMP_temperature;BMP_pressure;BME280_temperature;BME280_humidity;BME280_pressure;Samples;Min_cycle;Max_cycle;Signal;HPM_P1;HPM_P2
2021/05/05 00:00:10;;;;;;;3.50;2.37;;;7.90;99.90;;;;;;5020408;28;20458;-70
2021/05/05 00:02:36;;;;;;;2.93;2.73;;;7.80;99.90;;;;;;5021351;28;20444;-70
2021/05/05 00:05:01;;;;;;;5.63;2.60;;;7.70;99.90;;;;;;5012886;28;20891;-70
2021/05/05 00:07:27;;;;;;;6.03;2.93;;;7.60;99.90;;;;;;5019532;28;20205;-70
2021/05/05 00:09:53;;;;;;;3.10;2.90;;;7.50;99.90;;;;;;5027864;28;20187;-70
2021/05/05 00:12:18;;;;;;;5.57;3.17;;;7.50;99.90;;;;;;5020835;28;20189;-70
2021/05/05 00:14:44;;;;;;;4.30;2.80;;;7.40;99.90;;;;;;5019224;28;20178;-70
2021/05/05 00:17:09;;;;;;;4.43;2.13;;;7.40;99.90;;;;;;5020797;28;20519;-70
2021/05/05 00:19:35;;;;;;;2.10;2.00;;;7.40;99.90;;;;;;5020863;28;20198;-70
2021/05/05 00:22:01;;;;;;;2.47;2.27;;;7.50;99.90;;;;;;5019066;28;20176;-70
2021/05/05 00:24:27;;;;;;;2.30;2.20;;;7.40;99.90;;;;;;5022394;28;20634;-70
2021/05/05 00:26:53;;;;;;;3.80;2.10;;;7.40;99.90;;;;;;5021353;28;20186;-70
2021/05/05 00:29:18;;;;;;;2.00;1.87;;;7.50;99.90;;;;;;5025539;28;20799;-69
2021/05/05 00:31:44;;;;;;;5.73;2.10;;;7.40;99.90;;;;;;5023982;28;20182;-70
2021/05/05 00:34:10;;;;;;;4.23;2.10;;;7.40;99.90;;;;;;5023910;28;20254;-70
2021/05/05 00:36:35;;;;;;;2.10;2.00;;;7.40;99.90;;;;;;5022247;28;20179;-70
2021/05/05 00:39:03;;;;;;;2.30;2.10;;;7.40;99.90;;;;;;5024289;28;20650;-70
2021/05/05 00:41:29;;;;;;;2.47;2.27;;;7.40;99.90;;;;;;5023981;28;20183;-70
2021/05/05 00:43:54;;;;;;;2.93;2.00;;;7.30;99.90;;;;;;5022782;28;20915;-70
2021/05/05 00:46:20;;;;;;;4.97;2.30;;;7.40;99.90;;;;;;5017738;28;20432;-70
2021/05/05 00:48:46;;;;;;;3.50;2.03;;;7.40;99.90;;;;;;5022269;28;20190;-70
2021/05/05 00:51:11;;;;;;;3.17;2.13;;;7.40;99.90;;;;;;5021024;28;20220;-70
2021/05/05 00:53:39;;;;;;;2.87;1.97;;;7.30;99.90;;;;;;5022404;28;20186;-70
2021/05/05 00:56:05;;;;;;;5.20;2.17;;;7.30;99.90;;;;;;5020461;28;20186;-70
2021/05/05 00:58:30;;;;;;;5.70;2.00;;;7.40;99.90;;;;;;5024372;28;20479;-70
2021/05/05 01:00:56;;;;;;;1.93;1.73;;;7.40;99.90;;;;;;5022487;28;20194;-70
2021/05/05 01:03:23;;;;;;;7.53;2.00;;;7.30;99.90;;;;;;5017936;28;20510;-70
2021/05/05 01:05:50;;;;;;;2.33;1.70;;;7.40;99.90;;;;;;5019376;28;20999;-70
2021/05/05 01:08:19;;;;;;;4.27;1.90;;;7.30;99.90;;;;;;5024434;28;20921;-70
2021/05/05 01:10:45;;;;;;;5.33;2.07;;;7.30;99.90;;;;;;5021741;28;20788;-70
2021/05/05 01:13:14;;;;;;;2.20;1.63;;;7.30;99.90;;;;;;5024498;28;20424;-70
2021/05/05 01:15:40;;;;;;;11.53;2.30;;;7.30;99.90;;;;;;5019333;28;20441;-70
2021/05/05 01:18:06;;;;;;;1.53;1.43;;;7.20;99.90;;;;;;5019117;28;20562;-70
2021/05/05 01:20:32;;;;;;;2.40;1.70;;;7.20;99.90;;;;;;5020292;28;20438;-70
2021/05/05 01:22:57;;;;;;;1.97;1.60;;;7.10;99.90;;;;;;5019222;28;20753;-70
2021/05/05 01:25:23;;;;;;;5.20;1.60;;;7.10;99.90;;;;;;5018378;28;20524;-70
2021/05/05 01:27:49;;;;;;;3.30;1.70;;;7.20;99.90;;;;;;5019291;28;20604;-70
2021/05/05 01:30:18;;;;;;;7.93;1.90;;;7.10;99.90;;;;;;5023144;28;20413;-70
2021/05/05 01:32:44;;;;;;;2.07;1.80;;;7.10;99.90;;;;;;5020560;28;20437;-70
2021/05/05 01:35:12;;;;;;;2.53;1.43;;;7.10;99.90;;;;;;5016745;28;20456;-70
2021/05/05 01:37:43;;;;;;;2.83;1.70;;;7.10;99.90;;;;;;5018677;28;20517;-70
2021/05/05 01:40:17;;;;;;;5.13;1.80;;;7.10;99.90;;;;;;5023705;28;20882;-70
2021/05/05 01:42:43;;;;;;;5.43;2.00;;;7.10;99.90;;;;;;5021494;28;20902;-70
2021/05/05 01:45:10;;;;;;;3.23;1.70;;;7.10;99.90;;;;;;5022865;28;20424;-70
2021/05/05 01:47:35;;;;;;;5.17;1.60;;;7.10;99.90;;;;;;5020322;28;20189;-70
2021/05/05 01:50:02;;;;;;;1.90;1.80;;;7.10;99.90;;;;;;5023461;28;20440;-70
2021/05/05 01:52:27;;;;;;;4.23;1.83;;;7.10;99.90;;;;;;5019984;28;20508;-70
2021/05/05 01:54:53;;;;;;;6.80;2.17;;;7.10;99.90;;;;;;5021141;28;20443;-70
2021/05/05 01:57:31;;;;;;;2.47;2.27;;;7.00;99.90;;;;;;5022075;28;20174;-70
2021/05/05 01:59:59;;;;;;;3.13;2.00;;;7.00;99.90;;;;;;5023253;28;20206;-70
2021/05/05 02:02:29;;;;;;;2.00;1.90;;;7.00;99.90;;;;;;5021075;28;20906;-70
2021/05/05 02:04:55;;;;;;;2.37;1.80;;;7.10;99.90;;;;;;5021496;28;20448;-70
2021/05/05 02:07:20;;;;;;;2.90;1.80;;;7.10;99.90;;;;;;5019858;28;20429;-70
2021/05/05 02:09:46;;;;;;;2.67;1.67;;;7.00;99.90;;;;;;5021862;28;20523;-70
2021/05/05 02:12:14;;;;;;;3.53;1.70;;;7.00;99.90;;;;;;5022140;28;20182;-70
2021/05/05 02:14:40;;;;;;;1.40;1.40;;;7.10;99.90;;;;;;5022380;28;20528;-70
2021/05/05 02:17:05;;;;;;;2.00;1.40;;;7.10;99.90;;;;;;5017942;28;20436;-70
2021/05/05 02:19:31;;;;;;;1.90;1.47;;;7.10;99.90;;;;;;5017223;28;20974;-70
2021/05/05 02:21:57;;;;;;;1.73;1.30;;;7.10;99.90;;;;;;5022009;28;20599;-70
2021/05/05 02:24:22;;;;;;;1.20;1.20;;;7.10;99.90;;;;;;5018639;28;20235;-70
2021/05/05 02:26:48;;;;;;;2.00;1.50;;;7.20;99.90;;;;;;5020973;28;20591;-70
2021/05/05 02:29:14;;;;;;;4.77;1.93;;;7.10;99.90;;;;;;5021483;28;20189;-70
2021/05/05 02:31:40;;;;;;;4.20;1.67;;;7.10;99.90;;;;;;5015825;28;20424;-70
2021/05/05 02:34:06;;;;;;;1.70;1.23;;;7.10;99.90;;;;;;5020930;28;20186;-70
2021/05/05 02:36:32;;;;;;;4.63;1.97;;;7.10;99.90;;;;;;5018177;28;20196;-70
2021/05/05 02:39:00;;;;;;;2.40;1.40;;;7.10;99.90;;;;;;5018957;28;20449;-70
2021/05/05 02:41:26;;;;;;;4.07;1.70;;;7.10;99.90;;;;;;5020256;28;20433;-70
2021/05/05 02:43:52;;;;;;;1.87;1.40;;;7.10;99.90;;;;;;5021101;28;20892;-70
2021/05/05 02:46:17;;;;;;;1.23;1.20;;;7.10;99.90;;;;;;5016589;28;20583;-70
2021/05/05 02:48:43;;;;;;;2.80;1.30;;;7.10;99.90;;;;;;5014952;28;20460;-70
2021/05/05 02:51:09;;;;;;;1.37;1.10;;;7.10;99.90;;;;;;5021130;28;20241;-70
2021/05/05 02:53:35;;;;;;;3.03;1.10;;;7.00;99.90;;;;;;5021367;28;20667;-70
2021/05/05 02:56:00;;;;;;;5.93;1.43;;;7.00;99.90;;;;;;5020452;28;20533;-70
2021/05/05 02:58:26;;;;;;;3.60;1.30;;;7.00;99.90;;;;;;5018944;28;20285;-70
2021/05/05 03:00:52;;;;;;;2.67;1.10;;;7.00;99.90;;;;;;5019397;28;20213;-70
2021/05/05 03:03:18;;;;;;;4.23;1.50;;;7.00;99.90;;;;;;5015378;28;20538;-70
2021/05/05 03:05:43;;;;;;;1.10;1.10;;;7.00;99.90;;;;;;5017626;28;20178;-69
2021/05/05 03:08:09;;;;;;;4.30;1.33;;;7.00;99.90;;;;;;5017849;28;20176;-69
2021/05/05 03:10:35;;;;;;;2.57;1.30;;;7.00;99.90;;;;;;5021966;28;20521;-69
2021/05/05 03:13:01;;;;;;;1.60;1.50;;;7.00;99.90;;;;;;5022565;28;20185;-69
2021/05/05 03:15:27;;;;;;;5.13;1.30;;;7.00;99.90;;;;;;5020520;28;20455;-70
2021/05/05 03:17:53;;;;;;;6.97;1.67;;;7.00;99.90;;;;;;5019970;28;20186;-69
2021/05/05 03:20:19;;;;;;;2.23;1.50;;;7.00;99.90;;;;;;5020139;28;20181;-70
2021/05/05 03:22:44;;;;;;;9.80;2.00;;;7.00;99.90;;;;;;5018191;28;20479;-69
2021/05/05 03:25:11;;;;;;;3.30;1.33;;;7.00;99.90;;;;;;5015255;28;20286;-70
2021/05/05 03:27:36;;;;;;;3.17;1.30;;;7.00;99.90;;;;;;5017421;28;20261;-70
2021/05/05 03:30:05;;;;;;;1.83;1.33;;;7.00;99.90;;;;;;5022068;28;20547;-70
2021/05/05 03:32:30;;;;;;;2.67;1.30;;;7.00;99.90;;;;;;5020594;28;20556;-70
2021/05/05 03:34:56;;;;;;;2.13;1.40;;;7.00;99.90;;;;;;5019454;28;20440;-70
2021/05/05 03:37:22;;;;;;;1.30;1.20;;;6.90;99.90;;;;;;5017557;28;20612;-70
2021/05/05 03:39:47;;;;;;;3.63;1.70;;;6.90;99.90;;;;;;5019197;28;20217;-70
2021/05/05 03:42:13;;;;;;;7.60;3.63;;;6.90;99.90;;;;;;5019680;28;20178;-70
2021/05/05 03:44:39;;;;;;;1.73;1.23;;;6.90;99.90;;;;;;5020280;28;20244;-70
2021/05/05 03:47:05;;;;;;;2.73;1.97;;;6.90;99.90;;;;;;5015679;28;20436;-70
2021/05/05 03:49:31;;;;;;;2.03;1.47;;;6.90;99.90;;;;;;5020502;28;20191;-70
2021/05/05 03:51:56;;;;;;;3.03;1.33;;;6.90;99.90;;;;;;5017187;28;20657;-70
2021/05/05 03:54:22;;;;;;;1.80;1.33;;;6.90;99.90;;;;;;5016568;28;20573;-70
2021/05/05 03:56:48;;;;;;;1.50;1.40;;;6.90;99.90;;;;;;5021346;28;20244;-69
2021/05/05 03:59:13;;;;;;;3.47;1.80;;;6.80;99.90;;;;;;5023104;28;20664;-70
2021/05/05 04:01:39;;;;;;;3.43;1.70;;;6.90;99.90;;;;;;5020280;28;20527;-70
2021/05/05 04:04:05;;;;;;;8.00;1.77;;;6.90;99.90;;;;;;5015251;28;20221;-70
2021/05/05 04:06:31;;;;;;;4.27;1.83;;;7.00;99.90;;;;;;5020753;28;20186;-70
2021/05/05 04:08:56;;;;;;;5.53;1.50;;;6.90;99.90;;;;;;5018878;28;20526;-71
2021/05/05 04:11:22;;;;;;;2.73;1.30;;;6.90;99.90;;;;;;5022327;28;20186;-70
2021/05/05 04:13:48;;;;;;;4.00;2.13;;;6.90;99.90;;;;;;5023094;28;20186;-70
2021/05/05 04:16:13;;;;;;;4.30;1.20;;;6.80;99.90;;;;;;5019811;28;20214;-70
2021/05/05 04:18:39;;;;;;;2.27;1.57;;;6.80;99.90;;;;;;5018905;28;20561;-70
2021/05/05 04:21:07;;;;;;;3.40;1.73;;;6.90;99.90;;;;;;5022220;28;20185;-70
2021/05/05 04:23:34;;;;;;;2.17;2.07;;;6.80;99.90;;;;;;5023620;28;20174;-70
2021/05/05 04:25:59;;;;;;;1.83;1.40;;;6.90;99.90;;;;;;5020929;28;20436;-70
2021/05/05 04:28:26;;;;;;;6.53;1.57;;;6.90;99.90;;;;;;5020016;28;20437;-70
2021/05/05 04:30:52;;;;;;;2.80;1.40;;;7.00;99.90;;;;;;5021761;28;20636;-70
2021/05/05 04:33:18;;;;;;;4.83;1.50;;;6.90;99.90;;;;;;5015758;28;20436;-70
2021/05/05 04:35:44;;;;;;;5.20;1.40;;;7.00;99.90;;;;;;5020497;28;20792;-70
2021/05/05 04:38:10;;;;;;;1.83;1.50;;;6.90;99.90;;;;;;5020455;28;20479;-70
2021/05/05 04:40:36;;;;;;;3.20;1.53;;;7.00;99.90;;;;;;5023038;28;20185;-70
2021/05/05 04:43:02;;;;;;;2.63;1.53;;;7.00;99.90;;;;;;5020303;28;20166;-70
2021/05/05 04:45:27;;;;;;;2.80;1.93;;;7.00;99.90;;;;;;5018314;28;20220;-70
2021/05/05 04:47:53;;;;;;;3.47;1.47;;;7.00;99.90;;;;;;4998854;28;613525;-70
2021/05/05 04:50:19;;;;;;;2.10;1.63;;;7.00;99.90;;;;;;5021949;28;20186;-70
2021/05/05 04:52:45;;;;;;;5.63;1.67;;;7.00;99.90;;;;;;5016550;28;20194;-70
2021/05/05 04:55:11;;;;;;;4.60;1.50;;;7.00;99.90;;;;;;5017591;28;20197;-70
2021/05/05 04:57:37;;;;;;;5.70;2.23;;;7.00;99.90;;;;;;5019064;28;20393;-70
2021/05/05 05:00:07;;;;;;;2.80;1.37;;;7.00;99.90;;;;;;5024209;28;20540;-70
2021/05/05 05:02:33;;;;;;;4.40;1.37;;;7.00;99.90;;;;;;5018077;28;20302;-70
2021/05/05 05:05:01;;;;;;;2.60;1.50;;;6.90;99.90;;;;;;5015389;28;20642;-70
2021/05/05 05:07:26;;;;;;;1.57;1.30;;;7.00;99.90;;;;;;5021119;28;20385;-70
2021/05/05 05:09:52;;;;;;;1.93;1.30;;;7.00;99.90;;;;;;5025117;28;20417;-70
2021/05/05 05:12:18;;;;;;;6.00;1.67;;;7.00;99.90;;;;;;5020802;28;20303;-70
2021/05/05 05:14:43;;;;;;;2.53;1.73;;;7.00;99.90;;;;;;5019917;28;20290;-70
2021/05/05 05:17:09;;;;;;;3.30;1.67;;;7.00;99.90;;;;;;5017242;28;20182;-70
2021/05/05 05:19:35;;;;;;;3.60;1.67;;;6.90;99.90;;;;;;5022581;28;20201;-70
2021/05/05 05:22:01;;;;;;;4.80;1.60;;;7.00;99.90;;;;;;5020056;28;20183;-70
2021/05/05 05:24:27;;;;;;;1.70;1.53;;;6.90;99.90;;;;;;5018991;28;20190;-70
2021/05/05 05:26:53;;;;;;;3.93;1.80;;;6.90;99.90;;;;;;5003300;28;20174;-70
2021/05/05 05:29:19;;;;;;;1.77;1.47;;;7.00;99.90;;;;;;5006987;28;20844;-69
2021/05/05 05:31:45;;;;;;;3.53;1.70;;;7.00;99.90;;;;;;5004996;28;20209;-70
2021/05/05 05:34:11;;;;;;;3.00;1.90;;;7.00;99.90;;;;;;5022955;28;20574;-69
2021/05/05 05:36:37;;;;;;;5.10;2.30;;;6.90;99.90;;;;;;5004244;28;20446;-69
2021/05/05 05:39:04;;;;;;;3.17;1.30;;;7.00;99.90;;;;;;4998078;28;20554;-69
2021/05/05 05:41:29;;;;;;;6.17;1.50;;;7.00;99.90;;;;;;5006266;28;20178;-69
2021/05/05 05:43:55;;;;;;;1.63;1.53;;;7.00;99.90;;;;;;5002592;28;20437;-69
2021/05/05 05:46:21;;;;;;;2.93;1.80;;;6.90;99.90;;;;;;5004659;28;20180;-69
2021/05/05 05:48:46;;;;;;;4.90;1.50;;;6.90;99.90;;;;;;5005126;28;20612;-69
2021/05/05 05:51:12;;;;;;;1.83;1.73;;;6.90;99.90;;;;;;5010926;28;20183;-70
2021/05/05 05:53:37;;;;;;;4.77;1.73;;;6.90;99.90;;;;;;5005877;28;20190;-69
2021/05/05 05:56:03;;;;;;;5.43;1.97;;;6.90;99.90;;;;;;5004694;28;20190;-70
2021/05/05 05:58:29;;;;;;;3.13;1.50;;;6.90;99.90;;;;;;5006470;28;20202;-69
2021/05/05 06:00:55;;;;;;;4.20;1.80;;;6.90;99.90;;;;;;5011442;28;20913;-69
2021/05/05 06:03:20;;;;;;;1.63;1.20;;;7.00;99.90;;;;;;5018928;28;20286;-69
2021/05/05 06:05:46;;;;;;;3.27;1.53;;;7.10;99.90;;;;;;5015646;28;20535;-69
2021/05/05 06:08:13;;;;;;;5.43;1.80;;;7.10;99.90;;;;;;5018267;28;20178;-69
2021/05/05 06:10:39;;;;;;;7.03;2.40;;;7.10;99.90;;;;;;5027444;28;20182;-69
2021/05/05 06:13:05;;;;;;;7.53;1.80;;;7.20;99.90;;;;;;5019784;28;20747;-69
2021/05/05 06:15:31;;;;;;;2.33;1.60;;;7.30;99.90;;;;;;5018279;28;20212;-69
2021/05/05 06:17:57;;;;;;;9.23;1.77;;;7.30;99.90;;;;;;5020520;28;20435;-69
2021/05/05 06:20:22;;;;;;;5.47;1.50;;;7.30;99.90;;;;;;5016020;28;20183;-70
2021/05/05 06:22:48;;;;;;;3.73;1.43;;;7.30;99.90;;;;;;5013255;28;20273;-69
2021/05/05 06:25:14;;;;;;;1.40;1.30;;;7.40;99.90;;;;;;5013268;28;20191;-69
2021/05/05 06:27:40;;;;;;;4.93;1.23;;;7.40;99.90;;;;;;5014447;28;20876;-70
2021/05/05 06:30:08;;;;;;;2.87;2.00;;;7.50;99.90;;;;;;5016463;28;20224;-69
2021/05/05 06:32:35;;;;;;;4.90;1.80;;;7.40;99.90;;;;;;5026158;28;20264;-69
2021/05/05 06:35:00;;;;;;;4.17;1.53;;;7.30;99.90;;;;;;5018650;28;20753;-70
2021/05/05 06:37:26;;;;;;;3.23;1.57;;;7.30;99.90;;;;;;5016719;28;20495;-69
2021/05/05 06:39:53;;;;;;;7.23;1.77;;;7.30;99.90;;;;;;5014941;28;20638;-69
2021/05/05 06:42:19;;;;;;;6.00;1.70;;;7.30;99.90;;;;;;5016091;28;20210;-69
2021/05/05 06:44:45;;;;;;;2.90;1.77;;;7.40;99.90;;;;;;5016813;28;20440;-69
2021/05/05 06:47:11;;;;;;;3.20;1.80;;;7.40;99.90;;;;;;5018312;28;20521;-69
2021/05/05 06:49:36;;;;;;;3.93;1.57;;;7.40;99.90;;;;;;5017018;28;20626;-69
2021/05/05 06:52:03;;;;;;;3.27;1.37;;;7.50;99.90;;;;;;5017324;28;20174;-69
2021/05/05 06:54:29;;;;;;;3.27;1.70;;;7.50;99.90;;;;;;5018563;28;20224;-69
2021/05/05 06:56:55;;;;;;;2.27;1.90;;;7.40;99.90;;;;;;5013729;28;20452;-69
2021/05/05 06:59:21;;;;;;;3.20;2.13;;;7.40;99.90;;;;;;5014575;28;20980;-69
2021/05/05 07:01:46;;;;;;;4.10;2.10;;;7.30;99.90;;;;;;5018360;28;20273;-69
2021/05/05 07:04:12;;;;;;;4.93;1.90;;;7.20;99.90;;;;;;5019908;28;20878;-69
2021/05/05 07:06:38;;;;;;;2.27;1.77;;;7.20;99.90;;;;;;5015870;28;20190;-69
2021/05/05 07:09:05;;;;;;;1.93;1.83;;;7.10;99.90;;;;;;5010018;28;20178;-69
2021/05/05 07:11:34;;;;;;;2.17;2.03;;;7.10;99.90;;;;;;5013741;28;20278;-69
2021/05/05 07:14:00;;;;;;;5.13;2.93;;;7.10;99.90;;;;;;5016495;28;20437;-70
2021/05/05 07:16:26;;;;;;;9.73;2.23;;;6.90;99.90;;;;;;5015568;28;20438;-69
2021/05/05 07:18:51;;;;;;;3.47;1.83;;;6.90;99.90;;;;;;5015680;28;20263;-69
2021/05/05 07:21:17;;;;;;;4.63;1.80;;;6.90;99.90;;;;;;5016465;28;20273;-69
2021/05/05 07:23:43;;;;;;;4.50;1.63;;;6.90;99.90;;;;;;5014240;28;20205;-69
2021/05/05 07:26:10;;;;;;;1.70;1.60;;;7.00;99.90;;;;;;5012721;28;20248;-70
2021/05/05 07:28:37;;;;;;;2.10;1.87;;;7.10;99.90;;;;;;5013810;28;20472;-69
2021/05/05 07:31:04;;;;;;;9.77;2.67;;;7.20;99.90;;;;;;5002828;28;20443;-70
2021/05/05 07:33:30;;;;;;;4.00;2.20;;;7.30;99.90;;;;;;5000208;28;20449;-70
2021/05/05 07:35:57;;;;;;;6.37;2.00;;;7.40;99.90;;;;;;5003244;28;20429;-69
2021/05/05 07:46:17;;;;;;;2.20;1.67;;;7.60;99.90;;;;;;5004908;28;20430;-70
2021/05/05 07:49:03;;;;;;;2.63;1.80;;;7.60;99.90;;;;;;5008498;28;20457;-69
2021/05/05 07:51:30;;;;;;;4.10;1.93;;;7.60;99.90;;;;;;5006713;28;20747;-69
2021/05/05 07:53:56;;;;;;;4.23;1.93;;;7.60;99.90;;;;;;5006531;28;20459;-69
2021/05/05 07:56:22;;;;;;;7.43;2.23;;;7.60;99.90;;;;;;5007246;28;20776;-69
2021/05/05 07:58:47;;;;;;;2.90;1.80;;;7.50;99.90;;;;;;5006513;28;20519;-69
2021/05/05 08:01:14;;;;;;;3.00;2.33;;;7.50;99.90;;;;;;5008220;28;20192;-69
2021/05/05 08:03:40;;;;;;;6.37;2.00;;;7.50;99.90;;;;;;5007822;28;20179;-69
2021/05/05 08:06:06;;;;;;;4.83;2.20;;;7.50;99.90;;;;;;5002839;28;20486;-69
2021/05/05 08:08:32;;;;;;;2.30;1.87;;;7.50;99.90;;;;;;5007136;28;20185;-70
2021/05/05 08:10:58;;;;;;;4.80;2.70;;;7.60;99.90;;;;;;5005098;28;20887;-70
2021/05/05 08:13:26;;;;;;;4.37;1.90;;;7.60;99.90;;;;;;4999991;28;20945;-69
2021/05/05 08:15:53;;;;;;;5.50;2.10;;;7.70;99.90;;;;;;4997746;28;20433;-69
2021/05/05 08:18:19;;;;;;;7.53;2.07;;;7.70;99.90;;;;;;5001454;28;20457;-69
2021/05/05 08:20:47;;;;;;;4.93;2.20;;;7.70;99.90;;;;;;5013630;28;20951;-69
2021/05/05 08:23:14;;;;;;;2.93;2.17;;;7.60;99.90;;;;;;5012175;28;20425;-69
2021/05/05 08:25:40;;;;;;;13.07;3.20;;;7.70;99.90;;;;;;5008749;28;20498;-69
2021/05/05 08:28:06;;;;;;;4.30;1.60;;;7.60;99.90;;;;;;5006857;28;20523;-69
2021/05/05 08:30:32;;;;;;;6.07;2.63;;;7.60;99.90;;;;;;5006971;28;20504;-70
2021/05/05 08:32:58;;;;;;;4.50;2.63;;;7.60;99.90;;;;;;5008551;28;20611;-69
2021/05/05 08:35:23;;;;;;;3.90;2.30;;;7.60;99.90;;;;;;5006596;28;20175;-69
2021/05/05 08:37:51;;;;;;;5.80;2.60;;;7.60;99.90;;;;;;5007094;28;20426;-69
2021/05/05 08:40:18;;;;;;;6.30;2.40;;;7.60;99.90;;;;;;4998880;28;20167;-69
2021/05/05 08:42:44;;;;;;;8.60;2.43;;;7.60;99.90;;;;;;5010962;28;20431;-69
2021/05/05 08:45:18;;;;;;;4.37;1.97;;;7.50;99.90;;;;;;5016609;28;20524;-70
2021/05/05 08:47:45;;;;;;;5.87;2.60;;;7.60;99.90;;;;;;5010860;28;20192;-70
2021/05/05 08:50:12;;;;;;;6.47;2.50;;;7.60;99.90;;;;;;5010091;28;20438;-69
2021/05/05 08:52:39;;;;;;;7.53;2.10;;;7.70;99.90;;;;;;5001808;28;20781;-70
2021/05/05 08:55:07;;;;;;;3.40;2.33;;;7.80;99.90;;;;;;5005669;28;20460;-70
2021/05/05 08:57:33;;;;;;;6.80;2.60;;;7.90;99.90;;;;;;5008795;28;20441;-70
2021/05/05 08:59:59;;;;;;;11.47;2.77;;;8.00;99.90;;;;;;5007864;28;20457;-70
2021/05/05 09:02:25;;;;;;;4.10;2.50;;;8.10;99.90;;;;;;5009983;28;20440;-70
2021/05/05 09:04:58;;;;;;;8.77;2.97;;;8.10;99.90;;;;;;5021189;28;20170;-70
2021/05/05 09:07:36;;;;;;;5.87;2.60;;;8.10;99.90;;;;;;5018754;28;20190;-70
2021/05/05 09:10:23;;;;;;;9.70;2.40;;;8.30;99.90;;;;;;5023897;28;20446;-70
2021/05/05 09:12:53;;;;;;;5.53;2.30;;;8.20;99.90;;;;;;5011681;28;20768;-69
2021/05/05 09:15:23;;;;;;;5.70;2.53;;;8.20;99.90;;;;;;5017320;28;20430;-70
2021/05/05 09:17:53;;;;;;;11.63;2.57;;;8.20;99.90;;;;;;5033922;28;20429;-70
2021/05/05 09:20:33;;;;;;;7.30;2.50;;;8.10;99.90;;;;;;5010380;28;20449;-70
2021/05/05 09:22:59;;;;;;;5.43;2.17;;;8.00;99.90;;;;;;5014294;28;20508;-70
2021/05/05 09:25:31;;;;;;;5.83;1.93;;;7.80;99.90;;;;;;5020290;28;20423;-70
2021/05/05 09:28:15;;;;;;;2.80;1.97;;;7.80;99.90;;;;;;5018485;28;20431;-70
2021/05/05 09:30:44;;;;;;;4.00;1.57;;;7.70;99.90;;;;;;5014815;28;20424;-70
2021/05/05 09:33:10;;;;;;;2.77;2.27;;;7.50;99.90;;;;;;5002329;28;20491;-70
2021/05/05 09:35:38;;;;;;;6.53;2.70;;;7.20;99.90;;;;;;5014382;28;20432;-70
2021/05/05 09:38:09;;;;;;;2.93;2.53;;;7.10;99.90;;;;;;5010816;28;20482;-70
2021/05/05 09:40:35;;;;;;;4.83;2.30;;;7.10;99.90;;;;;;5009493;28;20990;-70
2021/05/05 09:43:22;;;;;;;5.77;3.00;;;7.20;99.90;;;;;;5003596;28;20562;-70
2021/05/05 09:45:47;;;;;;;7.37;2.67;;;7.10;99.90;;;;;;5002387;28;20452;-70
2021/05/05 09:48:21;;;;;;;2.70;2.20;;;7.20;99.90;;;;;;5005153;28;20936;-69
2021/05/05 09:50:47;;;;;;;3.20;2.20;;;7.40;99.90;;;;;;5009063;28;20208;-70
2021/05/05 09:53:21;;;;;;;7.37;2.50;;;7.60;99.90;;;;;;5002386;28;20433;-71
2021/05/05 09:56:06;;;;;;;6.50;2.17;;;7.90;99.90;;;;;;5007177;28;20459;-70
2021/05/05 09:58:44;;;;;;;4.90;2.30;;;8.00;99.90;;;;;;5005962;28;20457;-70
2021/05/05 10:01:11;;;;;;;7.77;2.53;;;8.20;99.90;;;;;;5006247;28;20425;-70
2021/05/05 10:03:59;;;;;;;8.00;3.07;;;8.30;99.90;;;;;;5009929;28;20448;-70
2021/05/05 10:06:33;;;;;;;8.60;2.60;;;8.30;99.90;;;;;;5007630;28;20518;-70
2021/05/05 10:09:00;;;;;;;7.43;1.90;;;8.20;99.90;;;;;;5007140;28;20487;-70
2021/05/05 10:11:33;;;;;;;3.30;2.27;;;8.00;99.90;;;;;;5005738;28;20475;-70
2021/05/05 10:14:14;;;;;;;5.27;2.17;;;8.00;99.90;;;;;;5007935;28;20498;-70
2021/05/05 10:16:41;;;;;;;2.00;1.80;;;7.90;99.90;;;;;;5004660;28;20467;-70
2021/05/05 10:19:13;;;;;;;3.60;2.30;;;8.00;99.90;;;;;;5007906;28;20459;-70
2021/05/05 10:21:42;;;;;;;5.53;2.20;;;7.90;99.90;;;;;;5005154;28;20441;-69
2021/05/05 10:24:09;;;;;;;2.97;2.20;;;7.90;99.90;;;;;;5007744;28;20433;-70
2021/05/05 10:26:35;;;;;;;3.43;1.70;;;8.10;99.90;;;;;;5004180;28;21052;-69
2021/05/05 10:29:01;;;;;;;2.80;2.00;;;8.30;99.90;;;;;;5007408;28;20457;-69
2021/05/05 10:31:28;;;;;;;4.77;2.30;;;8.50;99.90;;;;;;5003773;28;20191;-69
2021/05/05 10:33:57;;;;;;;4.00;1.63;;;8.80;99.90;;;;;;5006407;28;20610;-69
2021/05/05 10:36:34;;;;;;;3.80;1.50;;;8.90;99.90;;;;;;5007681;28;20433;-69
2021/05/05 10:39:26;;;;;;;3.63;1.63;;;8.90;99.90;;;;;;5006793;28;20489;-69
2021/05/05 10:42:00;;;;;;;2.90;1.73;;;8.80;99.90;;;;;;5003281;28;20561;-68
2021/05/05 10:44:46;;;;;;;2.83;1.80;;;8.80;99.90;;;;;;4995944;28;20437;-69
2021/05/05 10:47:35;;;;;;;6.17;2.10;;;8.80;99.90;;;;;;5003622;28;20505;-69
2021/05/05 10:50:07;;;;;;;3.90;1.70;;;8.70;99.90;;;;;;5005338;28;20476;-69
2021/05/05 10:52:42;;;;;;;2.50;1.57;;;8.80;99.90;;;;;;5012404;28;20429;-69
2021/05/05 10:55:32;;;;;;;3.33;1.73;;;8.80;99.90;;;;;;4999905;28;20456;-69
2021/05/05 10:58:07;;;;;;;9.10;2.20;;;8.80;99.90;;;;;;5002217;28;20437;-69
2021/05/05 11:00:53;;;;;;;6.93;2.03;;;9.00;99.90;;;;;;5001223;28;20453;-69
2021/05/05 11:03:57;;;;;;;5.67;2.20;;;9.10;99.90;;;;;;4999453;28;20488;-69
2021/05/05 11:06:32;;;;;;;4.53;1.37;;;9.10;99.90;;;;;;4939132;28;20527;-69
2021/05/05 11:09:13;;;;;;;4.30;1.60;;;9.00;99.90;;;;;;4940683;28;20466;-69
2021/05/05 11:11:52;;;;;;;2.23;1.47;;;9.00;99.90;;;;;;4977986;28;20499;-69
2021/05/05 11:14:24;;;;;;;1.17;1.07;;;8.90;99.90;;;;;;5000255;28;20434;-69
2021/05/05 11:16:59;;;;;;;2.87;1.27;;;8.80;99.90;;;;;;4999524;28;20472;-69
2021/05/05 11:22:09;;;;;;;2.10;1.33;;;8.70;99.90;;;;;;4999722;28;20749;-69
2021/05/05 11:24:38;;;;;;;2.20;1.30;;;8.80;99.90;;;;;;5003682;28;20436;-69
2021/05/05 11:27:09;;;;;;;2.00;1.33;;;8.70;99.90;;;;;;4997678;28;20447;-69
2021/05/05 11:29:42;;;;;;;1.87;1.40;;;8.60;99.90;;;;;;5002530;28;20477;-69
2021/05/05 11:32:24;;;;;;;2.60;1.40;;;8.70;99.90;;;;;;4999254;28;20434;-70
2021/05/05 11:34:51;;;;;;;2.80;1.67;;;8.60;99.90;;;;;;5002540;28;20526;-70
2021/05/05 11:37:22;;;;;;;2.40;1.40;;;8.50;99.90;;;;;;5002424;28;20465;-70
2021/05/05 11:39:53;;;;;;;1.50;1.40;;;8.40;99.90;;;;;;4999961;28;20844;-71
2021/05/05 11:42:33;;;;;;;3.03;1.60;;;8.40;99.90;;;;;;5000176;28;20451;-70
2021/05/05 11:45:04;;;;;;;1.50;1.40;;;8.30;99.90;;;;;;4996535;28;20417;-68
2021/05/05 11:47:35;;;;;;;1.43;1.33;;;8.40;99.90;;;;;;5003202;28;20446;-68
2021/05/05 11:50:07;;;;;;;1.60;1.50;;;8.50;99.90;;;;;;4994966;28;20425;-68
2021/05/05 11:52:40;;;;;;;1.50;1.50;;;8.50;99.90;;;;;;5005072;28;20476;-69
2021/05/05 11:55:09;;;;;;;1.97;1.80;;;8.30;99.90;;;;;;5003925;28;20487;-68
2021/05/05 11:57:40;;;;;;;1.60;1.50;;;8.30;99.90;;;;;;5003902;28;20513;-69
2021/05/05 12:00:16;;;;;;;1.43;1.33;;;8.40;99.90;;;;;;5001171;28;20457;-68
2021/05/05 12:02:56;;;;;;;2.30;1.80;;;8.60;99.90;;;;;;5007212;28;20846;-68
2021/05/05 12:05:37;;;;;;;3.00;1.60;;;8.90;99.90;;;;;;5005245;28;20413;-68
2021/05/05 12:08:06;;;;;;;2.97;1.57;;;9.10;99.90;;;;;;5004472;28;20435;-68
2021/05/05 12:11:02;;;;;;;2.73;1.83;;;9.10;99.90;;;;;;5008908;28;20502;-69
2021/05/05 12:13:37;;;;;;;1.30;1.20;;;9.10;99.90;;;;;;5006788;28;20515;-68
2021/05/05 12:16:08;;;;;;;2.80;1.87;;;8.90;99.90;;;;;;5009926;28;20452;-68
2021/05/05 12:18:42;;;;;;;1.40;1.40;;;9.00;99.90;;;;;;5013944;28;20460;-69
2021/05/05 12:21:10;;;;;;;1.60;1.50;;;9.00;99.90;;;;;;5012177;28;20438;-69
2021/05/05 12:23:38;;;;;;;1.40;1.30;;;8.80;99.90;;;;;;5010619;28;20427;-68
2021/05/05 12:26:18;;;;;;;1.80;1.57;;;8.80;99.90;;;;;;5010093;28;20778;-68
2021/05/05 12:28:46;;;;;;;2.80;1.30;;;8.90;99.90;;;;;;5011073;28;20493;-68
2021/05/05 12:31:14;;;;;;;1.80;1.70;;;8.90;99.90;;;;;;5011884;28;20456;-68
2021/05/05 12:33:42;;;;;;;1.60;1.50;;;9.00;99.90;;;;;;5008693;28;20433;-68
2021/05/05 12:36:12;;;;;;;1.47;1.37;;;9.20;99.90;;;;;;5011002;28;20912;-69
2021/05/05 12:38:43;;;;;;;2.13;1.60;;;9.30;99.90;;;;;;5010391;28;20456;-68
2021/05/05 12:41:18;;;;;;;3.13;1.80;;;9.30;99.90;;;;;;5009549;28;20433;-68
2021/05/05 12:43:53;;;;;;;2.13;2.00;;;9.30;99.90;;;;;;5010685;28;20412;-68
2021/05/05 12:46:25;;;;;;;1.53;1.37;;;9.30;99.90;;;;;;5007736;28;20429;-69
2021/05/05 12:48:53;;;;;;;2.80;1.30;;;9.20;99.90;;;;;;5010948;28;20457;-69
2021/05/05 12:51:24;;;;;;;2.93;1.50;;;9.20;99.90;;;;;;5008963;28;20483;-68
2021/05/05 12:53:58;;;;;;;1.87;1.67;;;9.00;99.90;;;;;;5008072;28;20429;-68
2021/05/05 12:56:48;;;;;;;3.67;2.20;;;8.90;99.90;;;;;;5008522;28;20429;-68
2021/05/05 12:59:19;;;;;;;9.60;1.50;;;8.80;99.90;;;;;;5007802;28;20454;-69
2021/05/05 13:01:46;;;;;;;2.80;1.67;;;8.80;99.90;;;;;;5009876;28;20425;-69
2021/05/05 13:04:16;;;;;;;3.40;1.80;;;8.80;99.90;;;;;;5007600;28;20459;-69
2021/05/05 13:06:47;;;;;;;4.10;1.63;;;8.70;99.90;;;;;;5015815;28;20425;-67
2021/05/05 13:09:22;;;;;;;3.73;2.07;;;8.70;99.90;;;;;;5020715;28;20441;-72
2021/05/05 13:11:52;;;;;;;5.40;2.00;;;8.70;99.90;;;;;;5010923;28;21016;-70
2021/05/05 13:17:58;;;;;;;1.80;1.70;;;8.50;99.90;;;;;;5011883;28;20429;-70